Time;durP1;ratioP1;P1;durP2;ratioP2;P2;SDS_P1;SDS_P2;PMS_P1;PMS_P2;Temp;Humidity;BMP_temperature;BMP_pressure;BME280_temperature;BME280_humidity;BME280_pressure;Samples;Min_cycle;Max_cycle;Signal;HPM_P1;HPM_P2
2021/06/04 00:00:43;;;;;;;20.60;17.67;;;;;;;;;;4147793;34;20471;-86
2021/06/04 00:03:22;;;;;;;21.85;17.65;;;;;;;;;;4149578;34;20106;-86
2021/06/04 00:05:55;;;;;;;27.50;22.10;;;;;;;;;;4153774;34;20102;-84
2021/06/04 00:08:30;;;;;;;24.00;20.87;;;;;;;;;;4160835;34;20074;-85
2021/06/04 00:11:12;;;;;;;30.12;22.30;;;;;;;;;;4158647;34;20107;-86
2021/06/04 00:13:48;;;;;;;32.08;21.87;;;;;;;;;;4150084;34;20136;-88
2021/06/04 00:16:21;;;;;;;30.83;22.42;;;;;;;;;;4167268;34;20091;-86
2021/06/04 00:18:52;;;;;;;27.92;22.35;;;;;;;;;;4153131;34;20171;-87
2021/06/04 00:21:28;;;;;;;34.20;26.50;;;;;;;;;;4147939;34;20068;-87
2021/06/04 00:23:58;;;;;;;29.00;25.30;;;;;;;;;;4140531;34;20515;-87
2021/06/04 00:26:30;;;;;;;32.05;25.30;;;;;;;;;;4164406;34;20113;-86
2021/06/04 00:29:02;;;;;;;28.00;25.30;;;;;;;;;;4152196;34;20176;-88
2021/06/04 00:31:33;;;;;;;28.55;21.42;;;;;;;;;;4171738;34;20067;-89
2021/06/04 00:34:02;;;;;;;22.67;17.90;;;;;;;;;;4169818;34;20071;-91
2021/06/04 00:36:34;;;;;;;24.90;17.80;;;;;;;;;;4144469;34;20322;-88
2021/06/04 00:39:04;;;;;;;24.05;18.48;;;;;;;;;;4162741;34;20788;-87
2021/06/04 00:41:38;;;;;;;25.17;15.77;;;;;;;;;;4147575;34;20063;-88
2021/06/04 00:44:09;;;;;;;22.58;15.60;;;;;;;;;;4161951;34;20052;-87
2021/06/04 00:46:52;;;;;;;41.05;25.58;;;;;;;;;;4142103;34;20123;-88
2021/06/04 00:49:25;;;;;;;38.55;24.83;;;;;;;;;;4145206;34;20091;-87
2021/06/04 00:52:28;;;;;;;26.80;23.90;;;;;;;;;;4146078;34;20059;-86
2021/06/04 00:55:04;;;;;;;27.83;23.58;;;;;;;;;;4162252;34;20092;-89
2021/06/04 00:58:00;;;;;;;32.13;23.83;;;;;;;;;;4145442;34;20434;-87
2021/06/04 01:00:34;;;;;;;26.17;23.42;;;;;;;;;;4155069;34;20345;-87
2021/06/04 01:03:06;;;;;;;28.58;23.35;;;;;;;;;;4154752;34;20086;-87
2021/06/04 01:05:40;;;;;;;28.77;20.95;;;;;;;;;;4158910;34;20343;-87
2021/06/04 01:08:37;;;;;;;28.45;21.00;;;;;;;;;;4142316;34;20064;-88
2021/06/04 01:11:33;;;;;;;23.05;20.58;;;;;;;;;;4149180;34;20127;-89
2021/06/04 01:14:29;;;;;;;19.12;14.60;;;;;;;;;;4151860;34;20114;-89
2021/06/04 01:17:01;;;;;;;23.05;14.95;;;;;;;;;;4177331;34;20091;-88
2021/06/04 01:20:02;;;;;;;20.60;15.10;;;;;;;;;;4158408;34;20123;-89
2021/06/04 01:22:44;;;;;;;26.55;15.88;;;;;;;;;;4144861;34;20112;-88
2021/06/04 01:25:35;;;;;;;24.40;19.92;;;;;;;;;;4148705;34;20444;-88
2021/06/04 01:28:13;;;;;;;32.80;26.37;;;;;;;;;;4153424;34;20060;-88
2021/06/04 01:31:01;;;;;;;30.88;24.60;;;;;;;;;;4163322;34;20133;-89
2021/06/04 01:33:49;;;;;;;57.58;44.83;;;;;;;;;;4136789;34;20500;-88
2021/06/04 01:36:28;;;;;;;73.40;47.58;;;;;;;;;;4155557;34;20055;-88
2021/06/04 01:39:14;;;;;;;64.97;47.00;;;;;;;;;;4145594;34;20119;-88
2021/06/04 01:41:47;;;;;;;68.55;48.70;;;;;;;;;;4168100;34;20604;-89
2021/06/04 01:44:28;;;;;;;62.67;48.17;;;;;;;;;;4154749;34;20131;-87
2021/06/04 01:47:02;;;;;;;24.30;20.88;;;;;;;;;;4177441;34;20079;-88
2021/06/04 01:49:34;;;;;;;24.52;21.80;;;;;;;;;;4140096;34;20103;-87
2021/06/04 01:52:16;;;;;;;26.05;21.30;;;;;;;;;;4144039;34;20090;-88
2021/06/04 01:54:55;;;;;;;18.48;15.73;;;;;;;;;;4161358;34;20083;-89
2021/06/04 01:57:30;;;;;;;19.52;15.20;;;;;;;;;;4171168;34;21069;-88
2021/06/04 02:00:01;;;;;;;17.70;14.70;;;;;;;;;;4155453;34;20117;-88
2021/06/04 02:02:48;;;;;;;21.75;15.13;;;;;;;;;;4167734;34;20707;-88
2021/06/04 02:05:20;;;;;;;16.80;15.20;;;;;;;;;;4154049;34;20653;-88
2021/06/04 02:07:49;;;;;;;22.98;17.95;;;;;;;;;;4174025;34;20060;-89
2021/06/04 02:10:25;;;;;;;23.15;20.50;;;;;;;;;;4158967;34;20095;-87
2021/06/04 02:12:57;;;;;;;25.65;20.92;;;;;;;;;;4155549;34;20083;-86
2021/06/04 02:15:35;;;;;;;22.48;20.50;;;;;;;;;;4159178;34;20064;-88
2021/06/04 02:18:09;;;;;;;26.85;20.10;;;;;;;;;;4151018;34;20102;-86
2021/06/04 02:20:58;;;;;;;25.75;21.80;;;;;;;;;;4147832;34;20075;-87
2021/06/04 02:26:49;;;;;;;30.15;21.60;;;;;;;;;;4166362;34;20056;-88
2021/06/04 02:29:54;;;;;;;31.42;26.77;;;;;;;;;;4145112;34;20103;-89
2021/06/04 02:32:53;;;;;;;42.90;30.23;;;;;;;;;;4156300;34;20511;-88
2021/06/04 02:35:33;;;;;;;34.75;21.25;;;;;;;;;;4165159;34;20083;-90
2021/06/04 02:38:24;;;;;;;29.27;22.33;;;;;;;;;;4167261;34;20060;-89
2021/06/04 02:41:21;;;;;;;26.60;18.87;;;;;;;;;;4148267;34;20542;-87
2021/06/04 02:44:09;;;;;;;30.37;21.10;;;;;;;;;;4164783;34;20440;-88
2021/06/04 02:46:48;;;;;;;37.80;28.50;;;;;;;;;;4141221;34;20514;-87
2021/06/04 02:49:21;;;;;;;36.47;27.00;;;;;;;;;;4157509;34;20132;-88
2021/06/04 02:51:59;;;;;;;44.55;31.67;;;;;;;;;;4177519;34;20168;-90
2021/06/04 02:54:40;;;;;;;48.55;38.72;;;;;;;;;;4153694;34;20103;-86
2021/06/04 02:57:14;;;;;;;54.30;40.83;;;;;;;;;;4156775;34;20181;-86
2021/06/04 02:59:47;;;;;;;44.90;35.00;;;;;;;;;;4168016;34;20100;-88
2021/06/04 03:02:30;;;;;;;54.60;40.47;;;;;;;;;;4170988;34;20108;-87
2021/06/04 03:05:03;;;;;;;49.00;40.75;;;;;;;;;;4170398;34;20052;-89
2021/06/04 03:07:40;;;;;;;47.92;41.08;;;;;;;;;;4146683;34;20060;-90
2021/06/04 03:13:13;;;;;;;32.35;22.40;;;;;;;;;;4204090;28;20090;-95
2021/06/04 03:15:49;;;;;;;31.35;22.62;;;;;;;;;;4173994;34;20114;-92
2021/06/04 03:18:29;;;;;;;23.92;18.87;;;;;;;;;;4170727;34;20830;-94
2021/06/04 03:21:14;;;;;;;22.08;16.37;;;;;;;;;;4174412;34;20136;-93
2021/06/04 03:23:52;;;;;;;27.35;20.73;;;;;;;;;;4171335;34;20064;-94
2021/06/04 03:26:32;;;;;;;29.00;20.62;;;;;;;;;;4179902;34;20055;-95
2021/06/04 03:29:32;;;;;;;56.25;43.38;;;;;;;;;;4185738;34;20083;-95
2021/06/04 03:32:27;;;;;;;52.42;43.33;;;;;;;;;;4173230;34;20036;-96
2021/06/04 03:35:06;;;;;;;47.72;42.80;;;;;;;;;;4175794;34;20085;-96
2021/06/04 03:37:42;;;;;;;63.15;47.00;;;;;;;;;;4177581;34;20067;-95
2021/06/04 03:40:53;;;;;;;;;;;;;;;;;;;;;
2021/06/04 03:43:40;;;;;;;28.52;25.33;;;;;;;;;;4177078;34;20127;-95
2021/06/04 03:46:43;;;;;;;38.40;34.42;;;;;;;;;;4173166;34;20077;-95
2021/06/04 03:49:22;;;;;;;40.00;30.23;;;;;;;;;;4176474;34;20047;-95
2021/06/04 03:52:13;;;;;;;47.95;38.67;;;;;;;;;;4173449;34;20481;-95
2021/06/04 03:55:38;;;;;;;25.90;15.82;;;;;;;;;;4171242;34;20052;-95
2021/06/04 03:58:21;;;;;;;20.40;13.90;;;;;;;;;;4178462;34;20063;-96
2021/06/04 04:02:07;;;;;;;21.23;14.18;;;;;;;;;;4160097;34;20064;-95
2021/06/04 04:05:08;;;;;;;21.08;14.27;;;;;;;;;;4185890;34;20147;-96
2021/06/04 04:07:51;;;;;;;23.10;17.52;;;;;;;;;;4178364;34;20300;-95
2021/06/04 04:10:42;;;;;;;24.15;17.50;;;;;;;;;;4180294;34;20056;-96
2021/06/04 04:13:49;;;;;;;45.58;37.00;;;;;;;;;;4169728;34;20052;-95
2021/06/04 04:16:57;;;;;;;46.83;35.75;;;;;;;;;;4153864;34;20060;-95
2021/06/04 04:19:50;;;;;;;49.28;36.78;;;;;;;;;;4163506;34;20057;-95
2021/06/04 04:22:46;;;;;;;48.58;36.53;;;;;;;;;;4163459;34;20091;-95
2021/06/04 04:25:55;;;;;;;48.78;39.78;;;;;;;;;;4172262;34;20069;-96
2021/06/04 04:28:55;;;;;;;52.45;40.83;;;;;;;;;;4150617;34;20191;-95
2021/06/04 04:31:40;;;;;;;45.63;34.92;;;;;;;;;;4166811;34;20462;-95
2021/06/04 04:34:37;;;;;;;43.55;32.28;;;;;;;;;;4168912;34;20049;-95
2021/06/04 04:37:12;;;;;;;35.90;29.50;;;;;;;;;;4169502;34;20114;-96
2021/06/04 04:40:01;;;;;;;33.38;27.20;;;;;;;;;;4161273;34;20064;-95
2021/06/04 04:42:32;;;;;;;32.28;26.90;;;;;;;;;;4172928;34;20512;-94
2021/06/04 04:45:05;;;;;;;;;;;;;;;;;;4179254;34;20056;-95
2021/06/04 04:47:45;;;;;;;38.13;33.97;;;;;;;;;;4171430;34;20325;-93
2021/06/04 04:50:22;;;;;;;45.38;39.13;;;;;;;;;;4169640;34;20109;-95
2021/06/04 04:52:57;;;;;;;44.92;40.00;;;;;;;;;;4178608;34;20053;-94
2021/06/04 04:55:50;;;;;;;48.67;42.75;;;;;;;;;;4177839;34;20064;-95
2021/06/04 04:58:23;;;;;;;48.05;41.35;;;;;;;;;;4167824;34;20077;-94
2021/06/04 05:00:58;;;;;;;49.95;41.78;;;;;;;;;;4179352;34;20167;-94
2021/06/04 05:03:27;;;;;;;42.33;35.50;;;;;;;;;;4165140;34;20098;-94
2021/06/04 05:06:10;;;;;;;41.88;35.00;;;;;;;;;;4169275;34;20068;-95
2021/06/04 05:08:56;;;;;;;46.95;36.60;;;;;;;;;;4172340;34;20098;-95
2021/06/04 05:11:44;;;;;;;40.42;35.95;;;;;;;;;;4172406;34;20137;-95
2021/06/04 05:14:22;;;;;;;47.05;38.10;;;;;;;;;;4179016;34;20089;-94
2021/06/04 05:16:57;;;;;;;40.40;36.20;;;;;;;;;;4199623;34;20656;-96
2021/06/04 05:20:01;;;;;;;39.65;35.58;;;;;;;;;;4185540;34;20774;-95
2021/06/04 05:22:45;;;;;;;38.42;34.42;;;;;;;;;;4178570;34;20055;-95
2021/06/04 05:25:23;;;;;;;42.28;36.67;;;;;;;;;;4176383;34;20094;-94
2021/06/04 05:27:55;;;;;;;40.75;30.17;;;;;;;;;;4192142;34;20081;-95
2021/06/04 05:30:46;;;;;;;58.58;43.83;;;;;;;;;;4175078;34;20422;-96
2021/06/04 05:33:25;;;;;;;51.97;43.53;;;;;;;;;;4178186;34;20060;-96
2021/06/04 05:36:02;;;;;;;55.80;45.38;;;;;;;;;;4182385;34;20060;-95
2021/06/04 05:38:56;;;;;;;64.37;45.85;;;;;;;;;;4176858;34;20064;-95
2021/06/04 05:41:43;;;;;;;52.25;44.80;;;;;;;;;;4177189;34;20063;-94
2021/06/04 05:44:22;;;;;;;56.20;45.17;;;;;;;;;;4184682;34;20063;-96
2021/06/04 05:47:20;;;;;;;48.75;42.50;;;;;;;;;;4180795;34;20130;-95
2021/06/04 05:50:27;;;;;;;37.33;33.42;;;;;;;;;;4179741;34;20826;-96
2021/06/04 05:53:03;;;;;;;40.95;35.00;;;;;;;;;;4173053;34;20064;-96
2021/06/04 05:55:43;;;;;;;37.72;33.63;;;;;;;;;;4166514;34;20051;-95
2021/06/04 05:58:15;;;;;;;44.15;35.22;;;;;;;;;;4177648;34;20522;-95
2021/06/04 06:00:53;;;;;;;41.78;33.70;;;;;;;;;;4180949;34;20048;-96
2021/06/04 06:03:30;;;;;;;45.63;36.35;;;;;;;;;;4172086;34;20095;-95
2021/06/04 06:06:10;;;;;;;39.80;26.30;;;;;;;;;;4169598;34;20059;-96
2021/06/04 06:08:47;;;;;;;43.92;33.63;;;;;;;;;;4179628;34;20106;-96
2021/06/04 06:11:40;;;;;;;;;;;;;;;;;;4179958;34;20648;-96
2021/06/04 06:14:20;;;;;;;40.05;32.40;;;;;;;;;;4179864;34;20326;-96
2021/06/04 06:16:59;;;;;;;46.95;34.33;;;;;;;;;;4176825;34;20044;-96
2021/06/04 06:19:33;;;;;;;41.88;31.83;;;;;;;;;;4175655;34;20060;-94
2021/06/04 06:22:07;;;;;;;;;;;;;;;;;;4184873;34;20722;-95
2021/06/04 06:24:45;;;;;;;38.05;31.33;;;;;;;;;;4180999;34;19988;-96
2021/06/04 06:27:46;;;;;;;38.58;31.40;;;;;;;;;;4171058;34;20055;-95
2021/06/04 06:30:27;;;;;;;45.08;34.25;;;;;;;;;;4172680;34;20183;-96
2021/06/04 06:33:10;;;;;;;23.62;17.02;;;;;;;;;;4176928;34;20489;-93
2021/06/04 06:35:54;;;;;;;21.65;15.65;;;;;;;;;;4178739;34;20200;-94
2021/06/04 06:38:37;;;;;;;19.02;15.90;;;;;;;;;;4175899;34;20059;-95
2021/06/04 06:41:18;;;;;;;19.50;16.37;;;;;;;;;;4178807;34;20441;-95
2021/06/04 06:43:52;;;;;;;19.12;16.55;;;;;;;;;;4164653;34;20117;-95
2021/06/04 06:46:28;;;;;;;23.42;16.60;;;;;;;;;;4178083;34;20073;-96
2021/06/04 06:49:01;;;;;;;19.37;17.50;;;;;;;;;;4175670;34;20090;-96
2021/06/04 06:51:37;;;;;;;22.02;18.92;;;;;;;;;;4175347;34;20119;-96
2021/06/04 06:54:20;;;;;;;22.80;20.30;;;;;;;;;;4172694;34;20518;-95
2021/06/04 06:57:20;;;;;;;27.00;22.60;;;;;;;;;;4190056;34;20115;-96
2021/06/04 07:00:13;;;;;;;26.42;24.00;;;;;;;;;;4184432;34;20048;-96
2021/06/04 07:03:31;;;;;;;23.02;20.62;;;;;;;;;;4172992;34;20126;-96
2021/06/04 07:06:26;;;;;;;19.27;17.40;;;;;;;;;;4161389;34;20435;-95
2021/06/04 07:09:34;;;;;;;18.87;15.40;;;;;;;;;;4165842;34;20094;-96
2021/06/04 07:12:15;;;;;;;16.98;12.60;;;;;;;;;;4169472;34;20053;-95
2021/06/04 07:14:52;;;;;;;14.87;11.43;;;;;;;;;;4170217;34;20129;-95
2021/06/04 07:17:29;;;;;;;12.75;10.60;;;;;;;;;;4170800;34;20670;-93
2021/06/04 07:20:23;;;;;;;7.93;6.40;;;;;;;;;;4165986;34;20878;-96
2021/06/04 07:23:01;;;;;;;12.73;6.10;;;;;;;;;;4163771;34;20075;-96
2021/06/04 07:25:52;;;;;;;9.95;5.90;;;;;;;;;;4165517;34;20056;-96
2021/06/04 07:28:44;;;;;;;12.77;8.75;;;;;;;;;;4166620;34;20672;-96
2021/06/04 07:31:31;;;;;;;17.90;11.07;;;;;;;;;;4166152;34;20126;-95
2021/06/04 07:34:30;;;;;;;14.65;13.10;;;;;;;;;;4165210;34;20087;-95
2021/06/04 07:37:21;;;;;;;15.93;13.98;;;;;;;;;;4164707;34;20627;-95
2021/06/04 07:40:23;;;;;;;20.50;15.55;;;;;;;;;;4172235;34;20056;-96
2021/06/04 07:43:04;;;;;;;;;;;;;;;;;;4155384;34;20056;-96
2021/06/04 07:45:47;;;;;;;18.48;14.87;;;;;;;;;;4175749;34;19948;-96
2021/06/04 07:48:22;;;;;;;14.98;13.57;;;;;;;;;;4165161;34;20068;-96
2021/06/04 07:50:59;;;;;;;19.35;11.77;;;;;;;;;;4171857;34;20688;-96
2021/06/04 07:53:43;;;;;;;9.63;7.35;;;;;;;;;;4178240;34;20092;-96
2021/06/04 07:56:36;;;;;;;8.57;6.97;;;;;;;;;;4168156;34;20109;-96
2021/06/04 07:59:46;;;;;;;11.10;6.12;;;;;;;;;;4176222;34;20466;-96
2021/06/04 08:02:21;;;;;;;10.57;6.40;;;;;;;;;;4169353;34;20118;-96
2021/06/04 08:05:25;;;;;;;11.32;5.90;;;;;;;;;;4165178;34;20060;-96
2021/06/04 08:08:10;;;;;;;9.07;4.70;;;;;;;;;;4159573;34;20126;-96
2021/06/04 08:11:13;;;;;;;11.02;4.72;;;;;;;;;;4159433;34;20486;-95
2021/06/04 08:13:46;;;;;;;11.05;4.90;;;;;;;;;;4159723;34;20453;-94
2021/06/04 08:16:26;;;;;;;8.48;2.50;;;;;;;;;;4158636;34;20111;-94
2021/06/04 08:19:05;;;;;;;10.35;1.70;;;;;;;;;;4159080;34;20082;-94
2021/06/04 08:22:08;;;;;;;9.80;2.08;;;;;;;;;;4167923;34;20100;-95
2021/06/04 08:24:44;;;;;;;6.40;1.45;;;;;;;;;;4157442;34;20108;-94
2021/06/04 08:27:19;;;;;;;11.12;1.80;;;;;;;;;;4174737;34;20052;-96
2021/06/04 08:30:00;;;;;;;8.73;1.70;;;;;;;;;;4171777;34;20523;-94
2021/06/04 08:32:34;;;;;;;10.88;1.90;;;;;;;;;;4164566;34;20111;-94
2021/06/04 08:35:08;;;;;;;11.30;1.92;;;;;;;;;;4165347;34;20155;-96
2021/06/04 08:37:43;;;;;;;8.05;1.60;;;;;;;;;;4174056;34;20825;-96
2021/06/04 08:40:34;;;;;;;9.10;1.58;;;;;;;;;;4166896;34;20435;-95
2021/06/04 08:43:11;;;;;;;11.10;1.83;;;;;;;;;;4167380;34;20905;-95
2021/06/04 08:46:06;;;;;;;8.18;1.70;;;;;;;;;;4169064;34;20060;-96
2021/06/04 08:48:41;;;;;;;12.35;2.10;;;;;;;;;;4169854;34;20079;-96
2021/06/04 08:51:28;;;;;;;7.93;1.70;;;;;;;;;;4176854;34;20053;-94
2021/06/04 08:53:57;;;;;;;11.80;1.67;;;;;;;;;;4164230;34;20767;-95
2021/06/04 08:56:39;;;;;;;10.48;1.92;;;;;;;;;;4175010;34;20052;-95
2021/06/04 08:59:13;;;;;;;9.43;1.42;;;;;;;;;;4165263;34;20056;-95
2021/06/04 09:01:59;;;;;;;5.87;1.60;;;;;;;;;;4169942;34;20119;-96
2021/06/04 09:04:40;;;;;;;7.25;1.05;;;;;;;;;;4161855;34;20072;-96
2021/06/04 09:07:14;;;;;;;12.25;1.48;;;;;;;;;;4171462;34;20099;-93
2021/06/04 09:09:46;;;;;;;8.98;1.50;;;;;;;;;;4160615;34;20216;-95
2021/06/04 09:12:25;;;;;;;11.25;1.55;;;;;;;;;;4168142;34;20119;-93
2021/06/04 09:14:57;;;;;;;8.85;1.65;;;;;;;;;;4161729;34;20143;-96
2021/06/04 09:28:12;;;;;;;6.75;1.52;;;;;;;;;;5255234;26;20729;-84
2021/06/04 09:30:45;;;;;;;6.07;1.77;;;;;;;;;;5235344;27;20335;-85
2021/06/04 09:33:21;;;;;;;8.55;1.40;;;;;;;;;;5260614;27;20064;-84
2021/06/04 09:35:56;;;;;;;6.18;1.70;;;;;;;;;;5256042;27;20342;-83
2021/06/04 09:38:34;;;;;;;14.13;1.85;;;;;;;;;;5261243;27;20095;-83
2021/06/04 09:41:12;;;;;;;7.25;1.67;;;;;;;;;;5265855;27;20419;-84
2021/06/04 09:43:44;;;;;;;6.12;1.58;;;;;;;;;;5265090;27;20466;-83
2021/06/04 09:46:25;;;;;;;5.57;1.60;;;;;;;;;;5262267;27;20065;-83
2021/06/04 09:48:55;;;;;;;8.50;1.48;;;;;;;;;;5259882;27;20053;-85
2021/06/04 09:51:32;;;;;;;6.37;1.70;;;;;;;;;;5245894;27;20444;-86
2021/06/04 09:54:23;;;;;;;9.70;1.73;;;;;;;;;;5240455;27;20027;-85
2021/06/04 09:57:06;;;;;;;6.68;1.83;;;;;;;;;;5263352;27;20054;-85
2021/06/04 09:59:36;;;;;;;7.70;1.83;;;;;;;;;;5246398;27;20036;-85
2021/06/04 10:02:21;;;;;;;14.98;2.10;;;;;;;;;;5242618;27;20046;-87
2021/06/04 10:05:07;;;;;;;8.55;1.67;;;;;;;;;;5262464;27;20065;-84
2021/06/04 10:07:38;;;;;;;7.32;1.55;;;;;;;;;;5263052;27;20703;-85
2021/06/04 10:10:30;;;;;;;5.07;1.50;;;;;;;;;;5260014;27;20104;-84
2021/06/04 10:13:04;;;;;;;10.00;1.52;;;;;;;;;;5255082;27;20048;-84
2021/06/04 10:15:40;;;;;;;7.47;1.55;;;;;;;;;;5260311;27;20109;-85
2021/06/04 10:18:27;;;;;;;6.30;1.40;;;;;;;;;;5262430;27;20025;-84
2021/06/04 10:21:14;;;;;;;8.63;1.40;;;;;;;;;;5245618;27;20402;-84
2021/06/04 10:23:47;;;;;;;5.87;1.40;;;;;;;;;;5241682;27;20432;-82
2021/06/04 10:26:21;;;;;;;10.40;6.60;;;;;;;;;;5263591;27;20025;-86
2021/06/04 10:29:11;;;;;;;19.12;9.82;;;;;;;;;;5239126;27;20044;-85
2021/06/04 10:31:52;;;;;;;15.57;2.25;;;;;;;;;;5261474;27;20051;-86
2021/06/04 10:34:26;;;;;;;12.00;1.45;;;;;;;;;;5238970;27;20063;-83
2021/06/04 10:37:01;;;;;;;11.25;1.98;;;;;;;;;;5264276;27;20145;-85
2021/06/04 10:39:40;;;;;;;6.30;1.45;;;;;;;;;;5258944;27;20023;-84
2021/06/04 10:42:20;;;;;;;5.18;1.30;;;;;;;;;;5259780;27;20463;-84
2021/06/04 10:45:01;;;;;;;7.87;1.10;;;;;;;;;;5261516;27;20035;-87
2021/06/04 10:47:36;;;;;;;5.78;1.10;;;;;;;;;;5259945;27;20038;-86
2021/06/04 10:50:07;;;;;;;4.78;1.30;;;;;;;;;;5245833;27;20030;-86
2021/06/04 10:52:53;;;;;;;7.05;1.42;;;;;;;;;;5241901;27;20053;-87
2021/06/04 10:55:26;;;;;;;6.67;1.53;;;;;;;;;;5245694;27;20036;-84
2021/06/04 10:58:03;;;;;;;7.18;1.55;;;;;;;;;;5265196;27;20138;-84
2021/06/04 11:00:41;;;;;;;7.32;1.30;;;;;;;;;;5258673;27;20095;-84
2021/06/04 11:03:18;;;;;;;11.93;1.90;;;;;;;;;;5255897;27;20073;-82
2021/06/04 11:05:48;;;;;;;6.90;1.35;;;;;;;;;;5245554;27;20757;-83
2021/06/04 11:08:24;;;;;;;12.18;1.65;;;;;;;;;;5263311;27;20419;-83
2021/06/04 11:11:04;;;;;;;4.70;1.10;;;;;;;;;;5261139;27;20051;-84
2021/06/04 11:13:56;;;;;;;5.75;1.35;;;;;;;;;;5257971;27;20725;-84
2021/06/04 11:16:33;;;;;;;9.43;1.62;;;;;;;;;;5265453;27;20037;-83
2021/06/04 11:19:14;;;;;;;8.25;1.60;;;;;;;;;;5262605;27;20142;-84
2021/06/04 11:21:53;;;;;;;6.25;1.60;;;;;;;;;;5258909;27;20446;-82
2021/06/04 11:24:35;;;;;;;5.28;1.30;;;;;;;;;;5258782;27;20073;-83
2021/06/04 11:27:05;;;;;;;7.12;1.33;;;;;;;;;;5245719;27;20060;-83
2021/06/04 11:29:40;;;;;;;10.73;1.62;;;;;;;;;;5242378;27;20029;-83
2021/06/04 11:32:17;;;;;;;5.05;1.30;;;;;;;;;;5242778;27;20088;-84
2021/06/04 11:34:50;;;;;;;3.62;1.10;;;;;;;;;;5263946;27;20059;-85
2021/06/04 11:37:40;;;;;;;8.00;1.42;;;;;;;;;;5262508;27;20069;-83
2021/06/04 11:40:15;;;;;;;4.22;1.12;;;;;;;;;;5259294;27;20087;-84
2021/06/04 11:42:46;;;;;;;4.72;1.17;;;;;;;;;;5260972;27;20579;-82
2021/06/04 11:45:22;;;;;;;5.10;1.40;;;;;;;;;;5242753;27;20374;-83
2021/06/04 11:47:53;;;;;;;7.35;1.40;;;;;;;;;;5264454;27;20028;-85
2021/06/04 11:50:29;;;;;;;6.07;1.40;;;;;;;;;;5261079;27;20034;-85
2021/06/04 11:53:33;;;;;;;12.43;2.00;;;;;;;;;;5245938;27;20817;-84
2021/06/04 11:56:12;;;;;;;4.15;1.20;;;;;;;;;;5263238;27;20043;-86
2021/06/04 11:58:46;;;;;;;8.43;1.77;;;;;;;;;;5261413;27;20032;-83
2021/06/04 12:01:24;;;;;;;11.82;2.40;;;;;;;;;;5264213;27;20064;-82
2021/06/04 12:04:05;;;;;;;9.40;1.95;;;;;;;;;;5236923;27;20548;-84
2021/06/04 12:06:47;;;;;;;8.60;1.80;;;;;;;;;;5255322;27;20053;-85
2021/06/04 12:09:33;;;;;;;6.78;1.60;;;;;;;;;;5251456;27;20383;-87
2021/06/04 12:12:24;;;;;;;4.90;1.35;;;;;;;;;;5242396;27;20045;-84
2021/06/04 12:14:56;;;;;;;8.07;1.80;;;;;;;;;;5264882;27;20084;-82
2021/06/04 12:17:29;;;;;;;4.82;1.40;;;;;;;;;;5258524;27;20068;-83
2021/06/04 12:20:17;;;;;;;6.45;1.35;;;;;;;;;;5256900;27;20037;-84
2021/06/04 12:22:50;;;;;;;8.77;1.50;;;;;;;;;;5240996;27;20045;-84
2021/06/04 12:25:41;;;;;;;7.35;1.30;;;;;;;;;;5256606;27;20064;-84
2021/06/04 12:28:18;;;;;;;5.50;1.45;;;;;;;;;;5255275;27;20075;-84
2021/06/04 12:31:06;;;;;;;5.93;1.30;;;;;;;;;;5243119;27;20071;-84
2021/06/04 12:33:34;;;;;;;;;;;;;;;;;;5262062;27;20048;-85
2021/06/04 12:36:24;;;;;;;5.43;1.60;;;;;;;;;;5254711;27;20392;-84
2021/06/04 12:38:52;;;;;;;4.82;1.30;;;;;;;;;;5238848;27;20079;-84
2021/06/04 12:41:25;;;;;;;7.65;1.50;;;;;;;;;;5257915;27;20061;-87
2021/06/04 12:43:55;;;;;;;5.85;1.45;;;;;;;;;;5257661;27;20099;-83
2021/06/04 12:46:25;;;;;;;6.37;1.20;;;;;;;;;;5257315;27;20068;-85
2021/06/04 12:49:00;;;;;;;8.25;1.55;;;;;;;;;;5259505;27;20321;-82
2021/06/04 12:51:29;;;;;;;8.80;1.40;;;;;;;;;;5258504;27;20048;-84
2021/06/04 12:54:04;;;;;;;6.57;1.60;;;;;;;;;;5261010;27;20059;-86
2021/06/04 12:56:47;;;;;;;9.48;1.50;;;;;;;;;;5254804;27;20060;-86
2021/06/04 12:59:21;;;;;;;9.70;1.70;;;;;;;;;;5258081;27;20025;-84
2021/06/04 13:01:59;;;;;;;9.02;1.70;;;;;;;;;;5256867;27;20057;-85
2021/06/04 13:04:32;;;;;;;5.50;0.95;;;;;;;;;;5240534;27;20059;-85
2021/06/04 13:07:10;;;;;;;8.57;1.83;;;;;;;;;;5251317;27;20022;-84
2021/06/04 13:09:43;;;;;;;7.00;1.20;;;;;;;;;;5256454;27;20021;-85
2021/06/04 13:12:44;;;;;;;7.62;1.95;;;;;;;;;;5242812;27;20080;-85
2021/06/04 13:15:20;;;;;;;8.27;1.62;;;;;;;;;;5245702;27;20538;-84
2021/06/04 13:17:53;;;;;;;6.65;1.50;;;;;;;;;;5259506;27;20038;-83
2021/06/04 13:20:27;;;;;;;7.55;1.58;;;;;;;;;;5269108;27;20683;-84
2021/06/04 13:23:13;;;;;;;7.37;1.40;;;;;;;;;;5243834;27;20044;-83
2021/06/04 13:25:49;;;;;;;6.62;1.50;;;;;;;;;;5237476;27;20336;-86
2021/06/04 13:28:21;;;;;;;7.15;1.27;;;;;;;;;;5260520;27;20042;-82
2021/06/04 13:31:02;;;;;;;11.02;1.35;;;;;;;;;;5260446;27;20060;-84
2021/06/04 13:33:43;;;;;;;7.75;1.40;;;;;;;;;;5260742;27;20036;-85
2021/06/04 13:36:14;;;;;;;3.00;1.12;;;;;;;;;;5258867;27;20052;-84
2021/06/04 13:38:46;;;;;;;6.50;1.20;;;;;;;;;;5248406;27;20076;-83
2021/06/04 13:41:33;;;;;;;6.45;1.20;;;;;;;;;;5249479;27;20057;-84
2021/06/04 13:44:06;;;;;;;6.93;1.50;;;;;;;;;;5245310;27;20040;-83
2021/06/04 13:46:53;;;;;;;5.47;1.33;;;;;;;;;;5263513;27;20192;-84
2021/06/04 13:49:35;;;;;;;8.30;1.40;;;;;;;;;;5265942;27;20045;-84
2021/06/04 13:52:08;;;;;;;10.73;1.62;;;;;;;;;;5267324;27;20099;-82
2021/06/04 13:54:46;;;;;;;11.20;1.33;;;;;;;;;;5265399;27;20121;-84
2021/06/04 13:57:20;;;;;;;5.05;1.23;;;;;;;;;;5260966;27;20024;-84
2021/06/04 13:59:51;;;;;;;6.03;1.17;;;;;;;;;;5243949;27;20029;-82
2021/06/04 14:02:41;;;;;;;7.95;1.45;;;;;;;;;;5263982;27;20030;-84
2021/06/04 14:05:24;;;;;;;9.05;1.33;;;;;;;;;;5245620;27;20480;-85
2021/06/04 14:08:01;;;;;;;3.90;1.17;;;;;;;;;;5265942;27;20079;-83
2021/06/04 14:10:54;;;;;;;9.43;1.58;;;;;;;;;;5266965;27;20084;-85
2021/06/04 14:13:51;;;;;;;4.93;1.08;;;;;;;;;;5262465;27;20045;-82
2021/06/04 14:16:51;;;;;;;7.85;1.20;;;;;;;;;;5244112;27;20033;-84
2021/06/04 14:19:28;;;;;;;5.12;1.58;;;;;;;;;;5245312;27;20069;-84
2021/06/04 14:22:27;;;;;;;6.68;1.50;;;;;;;;;;5247011;27;20105;-84
2021/06/04 14:24:57;;;;;;;7.28;1.25;;;;;;;;;;5261310;27;20049;-84
2021/06/04 14:27:31;;;;;;;11.85;1.55;;;;;;;;;;5248254;27;20068;-83
2021/06/04 14:30:09;;;;;;;1.98;0.55;;;;;;;;;;5243955;27;20067;-84
2021/06/04 14:32:40;;;;;;;7.12;0.98;;;;;;;;;;5265318;27;20033;-81
2021/06/04 14:35:15;;;;;;;5.35;1.00;;;;;;;;;;5264131;27;20386;-85
2021/06/04 14:37:44;;;;;;;4.60;1.00;;;;;;;;;;5267845;27;20025;-84
2021/06/04 14:40:34;;;;;;;5.00;1.15;;;;;;;;;;5267199;27;20032;-85
2021/06/04 14:43:07;;;;;;;6.07;1.23;;;;;;;;;;5248622;27;20053;-85
2021/06/04 14:45:38;;;;;;;6.35;1.12;;;;;;;;;;5260834;27;20075;-83
2021/06/04 14:48:21;;;;;;;7.07;1.23;;;;;;;;;;5261863;27;20075;-87
2021/06/04 14:50:56;;;;;;;7.60;1.20;;;;;;;;;;5245711;27;20057;-86
2021/06/04 14:53:29;;;;;;;12.73;1.75;;;;;;;;;;5243380;27;20061;-84
2021/06/04 14:55:58;;;;;;;11.48;2.15;;;;;;;;;;5263253;27;20055;-86
2021/06/04 14:58:29;;;;;;;5.28;1.02;;;;;;;;;;5265889;27;20032;-85
2021/06/04 15:01:00;;;;;;;6.40;1.17;;;;;;;;;;5265032;27;20401;-85
2021/06/04 15:03:35;;;;;;;9.20;1.15;;;;;;;;;;5247407;27;20094;-85
2021/06/04 15:06:12;;;;;;;5.00;1.30;;;;;;;;;;5243998;27;20025;-82
2021/06/04 15:08:43;;;;;;;5.40;1.00;;;;;;;;;;5246176;27;20049;-84
2021/06/04 15:11:16;;;;;;;7.55;1.30;;;;;;;;;;5265591;27;20103;-83
2021/06/04 15:13:45;;;;;;;8.05;1.42;;;;;;;;;;5243012;27;20057;-85
2021/06/04 15:16:20;;;;;;;6.65;1.48;;;;;;;;;;5264748;27;20432;-84
2021/06/04 15:18:49;;;;;;;8.82;1.50;;;;;;;;;;5269271;27;20040;-84
2021/06/04 15:21:24;;;;;;;6.70;1.35;;;;;;;;;;5262942;27;20360;-84
2021/06/04 15:23:54;;;;;;;19.42;2.28;;;;;;;;;;5246163;27;20749;-84
2021/06/04 15:26:25;;;;;;;4.53;1.25;;;;;;;;;;5239956;27;20116;-82
2021/06/04 15:28:54;;;;;;;7.47;1.67;;;;;;;;;;5261883;27;20891;-86
2021/06/04 15:31:26;;;;;;;9.15;1.77;;;;;;;;;;5259583;27;20037;-83
2021/06/04 15:33:57;;;;;;;10.05;1.90;;;;;;;;;;5236493;27;20049;-86
2021/06/04 15:36:34;;;;;;;3.50;1.08;;;;;;;;;;5244678;27;20068;-86
2021/06/04 15:39:06;;;;;;;10.65;1.92;;;;;;;;;;5246106;27;20049;-86
2021/06/04 15:41:39;;;;;;;11.77;1.90;;;;;;;;;;5239497;27;20049;-87
2021/06/04 15:44:10;;;;;;;6.25;1.05;;;;;;;;;;5253669;27;20383;-86
2021/06/04 15:46:45;;;;;;;18.55;2.37;;;;;;;;;;5259892;27;20025;-86
2021/06/04 15:49:17;;;;;;;7.97;1.15;;;;;;;;;;5246580;27;20040;-83
2021/06/04 15:51:49;;;;;;;6.12;1.10;;;;;;;;;;5251786;27;20434;-85
2021/06/04 15:54:20;;;;;;;6.47;1.48;;;;;;;;;;5253830;27;20102;-84
2021/06/04 15:56:51;;;;;;;4.57;1.00;;;;;;;;;;5250036;27;20064;-85
2021/06/04 15:59:20;;;;;;;11.02;1.42;;;;;;;;;;5244853;27;20018;-86
2021/06/04 16:01:53;;;;;;;15.50;2.20;;;;;;;;;;5257892;27;20486;-85
2021/06/04 16:04:24;;;;;;;9.57;1.27;;;;;;;;;;5242474;27;20472;-84
2021/06/04 16:07:06;;;;;;;9.30;1.85;;;;;;;;;;5261539;27;20025;-84